Time;durP1;ratioP1;P1;durP2;ratioP2;P2;SDS_P1;SDS_P2;PMS_P1;PMS_P2;Temp;Humidity;BMP_temperature;BMP_pressure;BME280_temperature;BME280_humidity;BME280_pressure;Samples;Min_cycle;Max_cycle;Signal;HPM_P1;HPM_P2
2022/03/10 01:02:12;;;;;;;6.47;5.47;;;;;;;9.43;35.16;100510.25;1782015;78;22795;-60
2022/03/10 01:04:39;;;;;;;6.53;4.60;;;;;;;12.71;29.61;100505.44;1681598;84;21518;-60
2022/03/10 01:07:05;;;;;;;7.47;5.97;;;;;;;13.01;29.11;100507.36;1693643;84;22417;-61
2022/03/10 01:09:32;;;;;;;6.30;5.50;;;;;;;13.19;29.18;100501.82;1691526;83;21526;-61
2022/03/10 01:11:58;;;;;;;10.50;6.85;;;;;;;13.16;28.77;100506.75;1693766;83;21670;-61
2022/03/10 01:14:26;;;;;;;7.97;6.25;;;;;;;12.92;28.90;100509.91;1686902;83;21508;-60
2022/03/10 01:16:54;;;;;;;9.33;6.22;;;;;;;12.99;29.55;100511.37;1690744;84;21016;-61
2022/03/10 01:19:23;;;;;;;8.13;6.25;;;;;;;13.17;28.60;100519.04;1689364;82;21495;-60
2022/03/10 01:21:49;;;;;;;8.18;6.70;;;;;;;12.88;28.71;100516.20;1694312;83;21515;-61
2022/03/10 01:24:16;;;;;;;8.38;6.60;;;;;;;13.05;28.72;100523.47;1685841;83;21469;-61
2022/03/10 01:26:44;;;;;;;8.53;6.17;;;;;;;13.21;28.71;100534.31;1690330;83;21515;-61
2022/03/10 01:29:13;;;;;;;9.30;6.47;;;;;;;13.58;28.49;100531.08;1689178;83;21474;-61
2022/03/10 01:31:39;;;;;;;8.85;6.35;;;;;;;12.88;28.30;100540.42;1682927;83;22355;-60
2022/03/10 01:34:06;;;;;;;9.50;7.33;;;;;;;12.83;28.87;100540.14;1686690;83;21541;-61
2022/03/10 01:36:32;;;;;;;8.93;6.53;;;;;;;12.62;28.51;100544.45;1691453;82;21534;-60
2022/03/10 01:39:04;;;;;;;9.05;7.05;;;;;;;12.63;28.26;100555.39;1686635;83;21064;-61
2022/03/10 01:41:29;;;;;;;9.08;6.42;;;;;;;12.68;28.73;100547.32;1685109;84;21350;-61
2022/03/10 01:43:59;;;;;;;9.35;6.35;;;;;;;12.60;28.42;100558.16;1692099;83;22322;-61
2022/03/10 01:46:26;;;;;;;8.23;6.37;;;;;;;12.53;27.99;100559.30;1690689;83;21616;-59
2022/03/10 01:48:53;;;;;;;7.65;6.03;;;;;;;12.49;28.76;100559.01;1682103;83;21606;-59
2022/03/10 01:51:20;;;;;;;9.28;7.05;;;;;;;12.49;28.87;100562.97;1682589;83;23083;-61
2022/03/10 01:53:50;;;;;;;8.40;7.03;;;;;;;12.46;28.99;100566.55;1690231;82;21524;-59
2022/03/10 01:56:17;;;;;;;8.38;6.30;;;;;;;12.22;28.79;100569.63;1705833;82;22254;-60
2022/03/10 01:58:45;;;;;;;;;;;;;;;12.13;28.70;100577.85;1712711;82;21485;-60
2022/03/10 02:01:11;;;;;;;7.90;6.50;;;;;;;11.68;27.67;100576.66;1700670;83;20431;-60
2022/03/10 02:03:38;;;;;;;10.55;6.25;;;;;;;11.81;28.44;100584.14;1731202;80;21006;-60
2022/03/10 02:06:05;;;;;;;8.87;6.47;;;;;;;11.84;28.18;100586.70;1727002;81;21474;-60
2022/03/10 02:11:18;;;;;;;8.65;6.45;;;;;;;11.92;27.96;100586.47;1732411;80;21084;-60
2022/03/10 02:13:45;;;;;;;9.45;6.92;;;;;;;11.97;27.82;100598.58;1725462;82;21046;-60
2022/03/10 02:19:00;;;;;;;8.90;6.83;;;;;;;11.98;27.90;100600.31;1729309;81;21483;-60
2022/03/10 02:21:27;;;;;;;9.30;6.60;;;;;;;11.81;27.54;100603.48;1730738;82;22363;-60
2022/03/10 02:23:53;;;;;;;8.57;6.43;;;;;;;11.83;27.40;100604.75;1731172;81;21522;-62
2022/03/10 02:26:20;;;;;;;9.85;6.42;;;;;;;11.75;27.31;100604.12;1730703;80;24944;-61
2022/03/10 02:28:48;;;;;;;8.30;6.33;;;;;;;11.65;27.37;100614.95;1718450;80;21474;-60
2022/03/10 02:31:16;;;;;;;6.95;5.95;;;;;;;11.53;27.41;100619.73;1718928;81;21497;-61
2022/03/10 02:33:43;;;;;;;7.17;6.28;;;;;;;11.46;27.00;100621.25;1730337;80;22420;-62
2022/03/10 02:36:09;;;;;;;8.90;5.72;;;;;;;11.07;27.25;100629.89;1724994;81;21414;-60
2022/03/10 02:38:35;;;;;;;10.43;5.78;;;;;;;10.59;35.45;100629.92;1729556;80;21575;-61
2022/03/10 02:41:02;;;;;;;8.83;5.70;;;;;;;10.81;29.07;100633.26;1728083;81;21649;-61
2022/03/10 02:43:29;;;;;;;6.97;5.00;;;;;;;10.53;28.00;100640.61;1731847;80;21543;-60
2022/03/10 02:45:55;;;;;;;9.33;5.65;;;;;;;10.37;27.95;100636.66;1727934;81;22370;-61
2022/03/10 02:48:21;;;;;;;5.90;4.80;;;;;;;10.22;27.87;100644.45;1729700;80;20872;-62
2022/03/10 02:50:48;;;;;;;5.65;4.67;;;;;;;9.98;28.05;100655.96;1726417;82;21425;-60
2022/03/10 02:53:16;;;;;;;6.80;5.28;;;;;;;10.22;27.97;100653.19;1725430;81;21539;-60
2022/03/10 02:55:43;;;;;;;6.33;4.72;;;;;;;10.13;27.81;100662.19;1698312;83;21087;-61
2022/03/10 02:58:10;;;;;;;6.25;4.55;;;;;;;10.04;27.53;100665.03;1732536;82;22330;-60
2022/03/10 03:00:37;;;;;;;6.75;4.10;;;;;;;10.05;27.24;100669.37;1726451;80;21496;-60
2022/03/10 03:03:04;;;;;;;5.70;4.78;;;;;;;9.92;27.33;100671.88;1733661;80;21507;-60
2022/03/10 03:05:32;;;;;;;6.90;4.75;;;;;;;9.96;27.46;100668.73;1731884;80;21041;-60
2022/03/10 03:07:59;;;;;;;6.15;4.45;;;;;;;9.87;27.30;100678.57;1730963;80;21586;-60
2022/03/10 03:10:26;;;;;;;;;;;;;;;9.75;27.28;100683.63;1734164;80;22703;-60
2022/03/10 03:12:52;;;;;;;7.45;4.53;;;;;;;9.79;26.94;100690.14;1733891;80;20791;-60
2022/03/10 03:15:19;;;;;;;7.00;4.28;;;;;;;9.63;26.78;100687.02;1734603;80;21379;-60
2022/03/10 03:17:47;;;;;;;7.37;4.15;;;;;;;9.34;27.38;100687.17;1744860;80;21460;-60
2022/03/10 03:20:15;;;;;;;5.75;4.10;;;;;;;9.29;27.16;100697.78;1735009;80;20923;-59
2022/03/10 03:22:43;;;;;;;8.43;4.37;;;;;;;9.43;28.15;100707.13;1735477;80;22367;-60
2022/03/10 03:25:10;;;;;;;6.33;3.90;;;;;;;9.40;27.83;100713.31;1736149;80;21342;-62
2022/03/10 03:27:37;;;;;;;3.85;3.35;;;;;;;9.37;27.87;100715.98;1731890;80;21554;-60
2022/03/10 03:30:05;;;;;;;5.87;3.62;;;;;;;9.48;27.65;100720.56;1735102;80;21540;-60
2022/03/10 03:32:32;;;;;;;6.78;3.83;;;;;;;9.56;27.55;100730.91;1740980;80;21507;-61
2022/03/10 03:34:58;;;;;;;5.63;4.00;;;;;;;9.34;28.42;100741.86;1733752;80;22433;-61
2022/03/10 03:37:25;;;;;;;4.43;3.47;;;;;;;9.32;27.27;100734.89;1738076;80;21518;-59
2022/03/10 03:39:52;;;;;;;5.40;3.92;;;;;;;9.31;27.23;100741.06;1735558;80;22176;-60
2022/03/10 03:42:18;;;;;;;5.65;3.75;;;;;;;9.36;26.86;100748.37;1740642;80;21528;-60
2022/03/10 03:44:45;;;;;;;5.40;3.47;;;;;;;9.39;26.82;100744.38;1736194;80;21504;-60
2022/03/10 03:47:12;;;;;;;3.80;3.35;;;;;;;9.45;26.81;100742.08;1735954;80;22439;-60
2022/03/10 03:49:38;;;;;;;3.02;2.52;;;;;;;8.93;27.32;100747.45;1735527;80;21447;-60
2022/03/10 03:52:05;;;;;;;5.92;4.30;;;;;;;8.92;26.98;100749.64;1736057;80;21562;-60
2022/03/10 03:54:32;;;;;;;5.17;4.20;;;;;;;8.90;27.22;100754.06;1675275;85;21447;-59
2022/03/10 03:56:58;;;;;;;5.17;3.72;;;;;;;8.85;27.28;100755.03;1738359;80;21025;-59
2022/03/10 03:59:25;;;;;;;6.47;4.12;;;;;;;8.91;26.81;100755.80;1739223;80;22414;-59
2022/03/10 04:01:51;;;;;;;6.00;3.92;;;;;;;8.88;26.92;100756.30;1742593;80;21395;-59
2022/03/10 04:04:19;;;;;;;6.47;4.45;;;;;;;8.99;26.93;100758.73;1741796;80;21449;-59
2022/03/10 04:06:46;;;;;;;5.87;4.37;;;;;;;8.93;26.70;100764.96;1743127;80;21503;-58
2022/03/10 04:09:14;;;;;;;7.45;4.20;;;;;;;8.93;26.65;100766.27;1742672;80;21585;-59
2022/03/10 04:11:40;;;;;;;5.40;4.03;;;;;;;9.59;26.05;100762.78;1744110;80;22414;-60
2022/03/10 04:14:11;;;;;;;4.80;3.55;;;;;;;9.65;25.81;100763.53;1743401;81;21495;-60
2022/03/10 04:16:38;;;;;;;7.08;4.85;;;;;;;9.58;25.97;100763.23;1745208;80;21002;-62
2022/03/10 04:19:05;;;;;;;6.28;4.40;;;;;;;9.54;25.80;100764.20;1737759;80;21170;-61
2022/03/10 04:21:32;;;;;;;6.92;4.65;;;;;;;9.52;25.84;100769.94;1740593;80;27770;-60
2022/03/10 04:23:59;;;;;;;5.90;4.30;;;;;;;9.42;25.95;100775.83;1741647;80;22378;-59
2022/03/10 04:26:25;;;;;;;7.27;4.37;;;;;;;9.42;25.81;100780.19;1742693;80;21478;-59
2022/03/10 04:28:53;;;;;;;4.97;3.80;;;;;;;9.35;25.79;100779.47;1744938;80;21516;-58
2022/03/10 04:31:20;;;;;;;8.83;4.83;;;;;;;9.24;25.98;100780.98;1740355;81;21464;-59
2022/03/10 04:33:49;;;;;;;6.87;5.28;;;;;;;9.16;25.96;100782.89;1741826;80;21362;-58
2022/03/10 04:36:15;;;;;;;8.18;5.28;;;;;;;9.20;25.85;100785.02;1741126;80;22374;-59
2022/03/10 04:38:41;;;;;;;7.00;5.00;;;;;;;9.18;25.88;100785.03;1745087;80;21408;-58
2022/03/10 04:41:08;;;;;;;8.23;5.05;;;;;;;9.08;25.93;100792.64;1739891;80;21029;-60
2022/03/10 04:43:34;;;;;;;7.67;4.83;;;;;;;9.02;26.01;100798.87;1740481;80;21510;-59
2022/03/10 04:46:03;;;;;;;7.95;5.33;;;;;;;8.99;26.06;100797.63;1745309;80;21372;-59
2022/03/10 04:48:30;;;;;;;6.90;4.92;;;;;;;8.97;26.14;100807.28;1740372;80;22451;-60
2022/03/10 04:50:57;;;;;;;10.63;5.53;;;;;;;9.06;26.16;100807.55;1736346;80;21429;-60
2022/03/10 04:53:23;;;;;;;8.58;4.83;;;;;;;9.04;25.96;100809.34;1738911;80;21569;-60
2022/03/10 04:55:52;;;;;;;7.55;5.22;;;;;;;8.84;26.18;100813.19;1739189;80;21546;-60
2022/03/10 04:58:18;;;;;;;6.12;4.75;;;;;;;9.04;26.24;100806.72;1745940;81;21510;-60
2022/03/10 05:00:45;;;;;;;7.17;4.83;;;;;;;9.13;26.19;100817.05;1740644;80;22480;-60
2022/03/10 05:03:13;;;;;;;6.10;4.83;;;;;;;9.03;26.12;100814.19;1734661;81;21519;-60
2022/03/10 05:05:39;;;;;;;6.90;4.75;;;;;;;8.94;26.08;100827.00;1727101;81;21483;-60
2022/03/10 05:08:06;;;;;;;7.13;4.80;;;;;;;9.03;26.10;100824.68;1724722;81;21531;-60
2022/03/10 05:10:33;;;;;;;6.67;4.47;;;;;;;9.13;26.06;100827.55;1727497;81;22223;-60
2022/03/10 05:13:04;;;;;;;9.20;4.72;;;;;;;9.23;25.85;100821.67;1734749;81;22344;-60
2022/03/10 05:15:30;;;;;;;6.12;4.65;;;;;;;9.22;25.64;100826.06;1730201;80;21493;-60
2022/03/10 05:17:59;;;;;;;6.50;5.28;;;;;;;9.26;25.68;100829.50;1730358;80;21414;-59
2022/03/10 05:20:26;;;;;;;6.75;4.10;;;;;;;9.31;25.66;100828.52;1665494;84;21522;-60
2022/03/10 05:22:58;;;;;;;8.68;4.92;;;;;;;9.35;25.53;100831.96;1731759;81;20986;-59
2022/03/10 05:25:25;;;;;;;8.65;4.87;;;;;;;9.30;25.61;100837.73;1726826;81;22379;-59
2022/03/10 05:27:52;;;;;;;6.62;4.35;;;;;;;9.38;25.62;100837.59;1726699;82;21550;-59
2022/03/10 05:30:19;;;;;;;4.08;3.40;;;;;;;9.43;25.59;100834.44;1727975;81;21454;-59
2022/03/10 05:32:46;;;;;;;5.70;4.22;;;;;;;9.34;25.50;100833.73;1727488;82;21462;-59
2022/03/10 05:35:17;;;;;;;5.92;4.40;;;;;;;9.44;25.50;100842.29;1731223;80;21424;-59
2022/03/10 05:37:45;;;;;;;8.50;4.35;;;;;;;9.58;25.47;100839.39;1720257;80;22341;-59
2022/03/10 05:40:13;;;;;;;6.12;3.85;;;;;;;9.56;25.45;100839.87;1729708;81;20980;-59
2022/03/10 05:42:42;;;;;;;7.22;4.40;;;;;;;9.37;25.45;100845.92;1728058;81;21577;-59
2022/03/10 05:45:09;;;;;;;5.47;4.35;;;;;;;9.38;25.47;100850.28;1732344;80;21508;-59
2022/03/10 05:47:38;;;;;;;6.53;4.30;;;;;;;9.28;25.59;100850.87;1728158;82;21633;-59
2022/03/10 05:50:05;;;;;;;;;;;;;;;9.50;25.48;100845.24;1732535;80;21459;-60
2022/03/10 05:52:32;;;;;;;6.87;4.35;;;;;;;9.57;25.18;100853.85;1716833;80;20421;-59
2022/03/10 05:54:59;;;;;;;4.92;3.05;;;;;;;9.74;25.42;100849.16;1737403;80;21482;-60
2022/03/10 05:57:25;;;;;;;4.62;4.00;;;;;;;9.78;25.09;100855.22;1733474;80;21488;-59
2022/03/10 05:59:51;;;;;;;7.85;4.33;;;;;;;9.76;25.08;100855.23;1735057;81;21435;-60
2022/03/10 06:02:18;;;;;;;6.40;4.22;;;;;;;9.47;25.74;100857.96;1726943;80;22400;-59
2022/03/10 06:04:45;;;;;;;4.83;4.22;;;;;;;9.49;25.64;100868.02;1739753;80;21535;-59
2022/03/10 06:07:11;;;;;;;6.07;4.57;;;;;;;9.48;25.51;100866.27;1732544;80;21449;-60
2022/03/10 06:09:38;;;;;;;7.35;4.30;;;;;;;9.71;25.51;100871.07;1731882;82;21404;-60
2022/03/10 06:12:06;;;;;;;4.90;4.05;;;;;;;9.86;25.42;100870.36;1718004;81;21630;-60
2022/03/10 06:14:33;;;;;;;5.28;4.50;;;;;;;9.80;26.34;100864.78;1719213;81;22301;-58
2022/03/10 06:17:00;;;;;;;6.37;4.13;;;;;;;9.75;25.29;100866.63;1729733;80;21440;-60
2022/03/10 06:19:28;;;;;;;6.42;4.72;;;;;;;9.85;25.45;100870.81;1722373;80;21401;-61
2022/03/10 06:21:56;;;;;;;6.95;5.00;;;;;;;10.09;25.06;100873.36;1727687;81;21394;-61
2022/03/10 06:24:23;;;;;;;5.40;4.22;;;;;;;10.03;25.00;100873.95;1692677;82;20925;-60
2022/03/10 06:26:49;;;;;;;8.23;4.22;;;;;;;10.12;24.95;100873.30;1730808;80;22294;-60
2022/03/10 06:29:16;;;;;;;5.03;3.87;;;;;;;10.23;25.00;100873.08;1728988;80;21616;-60
2022/03/10 06:31:42;;;;;;;5.33;3.72;;;;;;;10.09;24.97;100870.73;1732479;80;20932;-60
2022/03/10 06:34:09;;;;;;;4.95;4.25;;;;;;;10.14;24.64;100875.91;1729572;80;21404;-60
2022/03/10 06:36:35;;;;;;;5.35;4.00;;;;;;;10.23;24.51;100873.54;1730068;82;21562;-61
2022/03/10 06:39:02;;;;;;;5.97;4.55;;;;;;;10.13;24.56;100887.30;1728179;81;22348;-60
2022/03/10 06:41:28;;;;;;;6.40;4.20;;;;;;;10.01;24.48;100877.06;1722063;80;21340;-60
2022/03/10 06:43:55;;;;;;;4.28;3.55;;;;;;;10.27;24.36;100879.14;1711039;82;21486;-60
2022/03/10 06:46:21;;;;;;;7.25;3.90;;;;;;;10.69;24.05;100868.56;1724155;81;21505;-62
2022/03/10 06:48:48;;;;;;;5.00;3.80;;;;;;;10.70;23.98;100884.78;1724707;81;21047;-60
2022/03/10 06:51:14;;;;;;;5.97;4.40;;;;;;;10.73;23.97;100882.05;1723255;80;22329;-60
2022/03/10 06:53:41;;;;;;;7.50;4.12;;;;;;;10.81;24.03;100868.72;1716852;80;21744;-60
2022/03/10 06:56:08;;;;;;;5.70;4.10;;;;;;;10.82;24.14;100879.20;1726481;80;21521;-60
2022/03/10 06:58:36;;;;;;;6.72;4.08;;;;;;;10.94;24.09;100885.07;1727363;80;21988;-60
2022/03/10 07:01:02;;;;;;;6.53;4.53;;;;;;;10.93;23.95;100876.78;1729608;81;21620;-61
2022/03/10 07:03:29;;;;;;;5.83;4.47;;;;;;;10.88;23.79;100880.36;1731742;81;22343;-60
2022/03/10 07:05:55;;;;;;;5.87;3.90;;;;;;;10.79;24.18;100892.42;1729854;80;21547;-61
2022/03/10 07:08:22;;;;;;;7.50;4.28;;;;;;;10.87;24.24;100887.01;1728677;81;21518;-60
2022/03/10 07:10:49;;;;;;;4.85;4.25;;;;;;;10.97;24.00;100892.91;1730940;81;21613;-61
2022/03/10 07:13:15;;;;;;;6.62;4.22;;;;;;;10.87;23.92;100885.23;1728584;81;21648;-60
2022/03/10 07:15:42;;;;;;;5.12;4.00;;;;;;;11.05;23.67;100883.89;1724379;80;22488;-61
2022/03/10 07:18:09;;;;;;;7.20;4.37;;;;;;;11.27;23.71;100882.91;1728658;81;27455;-61
2022/03/10 07:20:36;;;;;;;5.25;4.05;;;;;;;11.46;23.84;100874.06;1724791;81;21458;-61
2022/03/10 07:23:03;;;;;;;5.17;3.90;;;;;;;11.41;23.47;100877.73;1726367;81;21317;-60
2022/03/10 07:25:29;;;;;;;7.50;3.90;;;;;;;11.64;23.35;100876.67;1733777;81;21471;-61
2022/03/10 07:27:56;;;;;;;4.37;3.70;;;;;;;11.81;23.36;100878.83;1724132;80;21432;-61
2022/03/10 07:30:23;;;;;;;6.27;3.97;;;;;;;12.01;23.10;100879.59;1726723;81;21539;-62
2022/03/10 07:32:49;;;;;;;6.33;3.45;;;;;;;11.91;22.77;100880.78;1733475;80;21645;-61
2022/03/10 07:35:16;;;;;;;4.92;3.70;;;;;;;11.91;22.45;100881.24;1728992;81;21462;-61
2022/03/10 07:37:46;;;;;;;3.33;2.98;;;;;;;11.85;22.47;100893.64;1730737;81;21510;-61
2022/03/10 07:40:13;;;;;;;6.33;3.47;;;;;;;12.02;22.20;100891.88;1726097;80;22662;-61
2022/03/10 07:42:39;;;;;;;5.85;3.47;;;;;;;12.16;22.07;100881.37;1727692;81;21586;-61
2022/03/10 07:45:07;;;;;;;3.72;3.05;;;;;;;12.38;22.12;100875.87;1729560;81;21574;-62
2022/03/10 07:47:33;;;;;;;5.67;4.30;;;;;;;12.42;21.70;100880.59;1730331;82;21874;-60
2022/03/10 07:50:00;;;;;;;5.30;3.55;;;;;;;12.49;21.51;100884.78;1734083;79;21436;-61
2022/03/10 07:52:26;;;;;;;4.33;3.77;;;;;;;12.68;21.46;100885.06;1724397;81;22407;-61
2022/03/10 07:54:53;;;;;;;4.28;3.40;;;;;;;13.01;21.60;100884.87;1726017;80;21668;-59
2022/03/10 07:57:19;;;;;;;6.65;3.22;;;;;;;13.10;21.44;100881.92;1726186;81;21567;-61
2022/03/10 07:59:47;;;;;;;4.60;3.30;;;;;;;13.51;21.19;100886.28;1725119;81;21403;-61
2022/03/10 08:02:14;;;;;;;5.65;3.62;;;;;;;13.94;20.69;100883.41;1720728;81;20946;-61
2022/03/10 08:04:40;;;;;;;4.03;3.20;;;;;;;14.32;20.19;100886.38;1725798;81;22368;-61
2022/03/10 08:07:07;;;;;;;4.55;3.12;;;;;;;14.37;19.62;100878.25;1724705;80;21404;-62
2022/03/10 08:09:35;;;;;;;5.00;3.42;;;;;;;14.72;19.37;100876.89;1717088;81;20992;-61
2022/03/10 08:12:02;;;;;;;4.22;3.35;;;;;;;14.82;18.83;100871.23;1731797;81;21519;-61
2022/03/10 08:14:29;;;;;;;4.70;3.30;;;;;;;15.15;18.78;100886.19;1719673;81;21368;-61
2022/03/10 08:16:56;;;;;;;4.28;3.10;;;;;;;15.49;18.78;100879.45;1727809;81;21531;-61
2022/03/10 08:19:22;;;;;;;4.10;3.25;;;;;;;15.83;18.29;100874.01;1722911;81;21354;-64
2022/03/10 08:21:51;;;;;;;4.65;3.40;;;;;;;16.27;18.32;100873.73;1730985;81;20923;-62
2022/03/10 08:24:17;;;;;;;3.27;2.70;;;;;;;16.59;17.48;100876.18;1728343;80;21438;-62
2022/03/10 08:26:44;;;;;;;6.17;3.42;;;;;;;17.09;17.42;100871.54;1731233;81;20942;-62
2022/03/10 08:29:10;;;;;;;4.75;3.42;;;;;;;17.45;17.08;100863.94;1727748;82;22289;-61
2022/03/10 08:31:37;;;;;;;4.10;3.37;;;;;;;17.80;16.97;100862.56;1732543;81;21488;-61
2022/03/10 08:34:03;;;;;;;3.22;2.87;;;;;;;17.87;16.38;100863.95;1731032;80;21356;-61
2022/03/10 08:36:30;;;;;;;3.62;3.05;;;;;;;17.79;16.28;100858.65;1728056;81;21514;-61
2022/03/10 08:38:57;;;;;;;3.52;3.15;;;;;;;18.08;16.39;100858.41;1730944;81;21491;-61
2022/03/10 08:41:23;;;;;;;4.95;3.50;;;;;;;18.26;16.43;100864.06;1727318;80;22327;-61
2022/03/10 08:43:50;;;;;;;4.17;3.05;;;;;;;18.52;16.28;100868.41;1731353;81;21365;-62
2022/03/10 08:46:17;;;;;;;3.27;2.92;;;;;;;18.90;15.87;100868.52;1725376;81;21482;-63
2022/03/10 08:48:45;;;;;;;5.15;3.00;;;;;;;19.24;20.58;100848.23;1727365;81;21512;-63
2022/03/10 08:51:11;;;;;;;4.12;2.85;;;;;;;18.97;16.12;100867.22;1719742;81;21129;-63
2022/03/10 08:53:38;;;;;;;4.95;3.67;;;;;;;17.67;16.26;100862.34;1731850;81;22361;-61
2022/03/10 08:56:07;;;;;;;3.22;2.75;;;;;;;17.31;16.60;100870.46;1728602;81;21412;-62
2022/03/10 08:58:33;;;;;;;7.40;2.75;;;;;;;18.08;16.35;100862.41;1734327;80;21598;-61
2022/03/10 09:01:00;;;;;;;2.95;2.75;;;;;;;18.20;15.50;100860.41;1726589;80;21534;-61
2022/03/10 09:03:27;;;;;;;9.03;3.00;;;;;;;18.57;15.18;100863.69;1716516;80;21483;-64
2022/03/10 09:05:54;;;;;;;2.98;2.67;;;;;;;19.14;15.25;100864.41;1739780;80;22455;-61
2022/03/10 09:08:21;;;;;;;4.30;2.90;;;;;;;19.10;15.13;100866.00;1743990;80;20913;-61
2022/03/10 09:10:49;;;;;;;4.45;2.67;;;;;;;19.26;14.40;100869.00;1740697;80;21005;-62
2022/03/10 09:13:17;;;;;;;5.60;3.08;;;;;;;19.40;14.92;100861.97;1740689;80;21525;-62
2022/03/10 09:15:45;;;;;;;4.72;2.67;;;;;;;18.79;14.68;100856.63;1746173;80;21554;-62
2022/03/10 09:18:13;;;;;;;3.12;2.52;;;;;;;18.75;14.60;100862.24;1743708;80;23058;-61
2022/03/10 09:20:40;;;;;;;4.25;3.02;;;;;;;19.09;14.52;100857.16;1739250;80;21407;-62
2022/03/10 09:23:07;;;;;;;9.40;3.25;;;;;;;18.98;14.38;100855.11;1741639;80;21438;-62
2022/03/10 09:25:34;;;;;;;2.60;2.40;;;;;;;18.84;14.76;100852.42;1733575;80;21012;-62
2022/03/10 09:28:00;;;;;;;5.53;2.90;;;;;;;18.94;14.80;100858.91;1743401;80;20933;-62
2022/03/10 09:30:27;;;;;;;8.35;2.85;;;;;;;19.25;15.03;100864.64;1740115;80;22413;-62
2022/03/10 09:32:54;;;;;;;4.77;2.93;;;;;;;19.43;15.00;100856.47;1740951;80;21521;-63
2022/03/10 09:35:21;;;;;;;5.72;2.83;;;;;;;19.51;14.41;100855.52;1743166;80;21530;-62
2022/03/10 09:37:47;;;;;;;5.33;3.20;;;;;;;19.50;14.69;100858.30;1744849;80;21482;-62
2022/03/10 09:40:15;;;;;;;4.00;2.67;;;;;;;19.44;14.09;100854.20;1740377;80;21453;-62
2022/03/10 09:42:42;;;;;;;6.08;2.75;;;;;;;19.58;14.52;100855.53;1744921;80;22471;-61
2022/03/10 09:45:10;;;;;;;6.22;2.87;;;;;;;18.92;14.38;100856.81;1743086;80;21396;-62
2022/03/10 09:47:37;;;;;;;5.08;2.70;;;;;;;17.40;15.78;100863.31;1742617;80;21033;-62
2022/03/10 09:50:07;;;;;;;3.72;2.98;;;;;;;17.28;16.04;100863.48;1731546;80;21594;-62
2022/03/10 09:52:34;;;;;;;7.33;2.92;;;;;;;17.05;15.80;100869.98;1741152;80;20957;-60
2022/03/10 09:55:00;;;;;;;4.33;2.72;;;;;;;16.96;15.87;100870.44;1741114;80;22348;-61
2022/03/10 09:57:27;;;;;;;3.62;2.52;;;;;;;16.39;16.44;100864.33;1738226;80;20998;-61
2022/03/10 09:59:56;;;;;;;4.75;2.90;;;;;;;16.29;16.56;100858.60;1743163;81;21515;-61
2022/03/10 10:02:23;;;;;;;5.58;2.80;;;;;;;16.05;16.48;100857.95;1737966;80;21400;-61
2022/03/10 10:04:51;;;;;;;3.08;2.72;;;;;;;16.04;16.69;100853.59;1738863;81;21386;-61
2022/03/10 10:07:21;;;;;;;2.40;2.20;;;;;;;16.00;16.96;100853.34;1732013;80;21562;-62
2022/03/10 10:09:54;;;;;;;2.60;2.40;;;;;;;15.76;17.12;100857.50;1728995;82;21328;-61
2022/03/10 10:12:27;;;;;;;2.08;1.95;;;;;;;15.66;16.83;100849.55;1727045;81;21424;-61
2022/03/10 10:14:55;;;;;;;3.47;2.42;;;;;;;15.75;16.42;100854.00;1729992;81;21150;-62
2022/03/10 10:17:29;;;;;;;3.17;2.00;;;;;;;15.67;16.02;100851.25;1730097;82;21446;-62
2022/03/10 10:19:57;;;;;;;6.83;2.20;;;;;;;15.45;16.02;100854.86;1727480;81;22336;-63
2022/03/10 10:22:24;;;;;;;2.12;1.92;;;;;;;15.41;16.37;100849.31;1736072;80;20951;-63
2022/03/10 10:24:55;;;;;;;3.15;2.05;;;;;;;15.60;16.28;100853.80;1727780;81;21361;-63
2022/03/10 10:27:25;;;;;;;2.35;2.02;;;;;;;15.65;16.67;100844.72;1725766;80;21424;-63
2022/03/10 10:29:54;;;;;;;2.15;1.85;;;;;;;15.40;16.25;100842.27;1725734;81;21384;-62
2022/03/10 10:32:24;;;;;;;;;;;;;;;15.48;16.69;100851.20;1735318;82;22309;-63
2022/03/10 10:35:10;;;;;;;3.15;2.10;;;;;;;15.71;17.19;100838.28;1723645;81;20811;-62
2022/03/10 10:37:40;;;;;;;2.40;2.08;;;;;;;15.67;16.37;100848.16;1729561;82;21669;-62
2022/03/10 10:40:07;;;;;;;2.52;2.33;;;;;;;16.10;17.21;100845.34;1724318;80;21452;-61
2022/03/10 10:42:37;;;;;;;2.87;1.98;;;;;;;16.35;16.44;100843.27;1725131;81;21494;-63
2022/03/10 10:45:27;;;;;;;3.30;1.60;;;;;;;16.38;16.03;100848.88;1724136;81;21445;-61
2022/03/10 10:48:02;;;;;;;2.25;1.87;;;;;;;16.44;16.15;100857.02;1717578;81;21511;-63
2022/03/10 10:50:30;;;;;;;2.20;1.95;;;;;;;16.42;18.39;100854.42;1731470;81;21477;-63
2022/03/10 10:52:57;;;;;;;2.77;1.75;;;;;;;16.68;16.44;100862.94;1720975;81;21610;-63
2022/03/10 10:55:35;;;;;;;2.35;1.75;;;;;;;16.70;15.69;100861.92;1695619;83;21485;-62
2022/03/10 10:58:07;;;;;;;4.90;1.82;;;;;;;16.72;15.73;100842.78;1727125;80;22451;-63
2022/03/10 11:00:46;;;;;;;2.50;1.72;;;;;;;17.07;15.56;100841.53;1722576;81;21518;-61
2022/03/10 11:03:24;;;;;;;2.37;2.10;;;;;;;17.33;15.68;100844.66;1725889;81;21479;-62
2022/03/10 11:05:52;;;;;;;4.53;2.10;;;;;;;17.55;15.54;100842.19;1729494;80;21467;-60
2022/03/10 11:08:20;;;;;;;2.37;2.17;;;;;;;17.71;15.84;100836.45;1701795;82;21507;-60
2022/03/10 11:10:47;;;;;;;;;;;;;;;17.90;15.71;100833.20;1686735;84;22325;-61
2022/03/10 11:13:14;;;;;;;4.00;2.47;;;;;;;17.64;15.27;100837.72;1684623;82;20841;-63
2022/03/10 11:15:42;;;;;;;2.27;1.90;;;;;;;17.45;15.37;100825.87;1682062;84;21490;-61
2022/03/10 11:18:14;;;;;;;3.40;2.17;;;;;;;17.53;16.01;100818.81;1679189;84;21401;-62
2022/03/10 11:20:44;;;;;;;5.22;2.95;;;;;;;17.63;15.82;100831.55;1686632;84;21346;-61
2022/03/10 11:23:30;;;;;;;2.87;2.17;;;;;;;17.90;16.12;100830.55;1685098;83;22436;-63
2022/03/10 11:26:07;;;;;;;2.90;2.15;;;;;;;18.07;15.83;100831.43;1683932;83;20983;-63
2022/03/10 11:28:33;;;;;;;3.12;2.02;;;;;;;18.12;15.37;100833.37;1689443;84;20974;-61
2022/03/10 11:31:03;;;;;;;2.50;2.30;;;;;;;17.99;15.19;100833.64;1677288;83;21514;-61
2022/03/10 11:33:32;;;;;;;6.67;2.20;;;;;;;17.94;15.17;100834.38;1685416;84;21441;-62
2022/03/10 11:35:58;;;;;;;3.62;2.08;;;;;;;17.76;15.29;100837.05;1681175;84;22414;-61
2022/03/10 11:38:49;;;;;;;5.70;2.30;;;;;;;17.89;15.27;100842.15;1683896;83;21445;-63
2022/03/10 11:41:16;;;;;;;2.87;2.33;;;;;;;17.75;14.84;100835.34;1679289;83;21614;-62
2022/03/10 11:43:56;;;;;;;5.23;2.57;;;;;;;17.63;14.91;100832.88;1682832;84;21373;-62
2022/03/10 11:46:25;;;;;;;8.00;4.72;;;;;;;17.48;14.91;100835.02;1680104;84;21471;-62
2022/03/10 11:49:07;;;;;;;3.42;2.33;;;;;;;17.43;14.75;100845.88;1683477;83;22338;-62
2022/03/10 11:51:55;;;;;;;2.67;2.45;;;;;;;17.56;15.15;100839.94;1666504;83;21502;-63
2022/03/10 11:54:40;;;;;;;2.62;2.40;;;;;;;17.77;15.28;100837.92;1679641;83;21520;-61
2022/03/10 11:57:08;;;;;;;3.67;2.60;;;;;;;17.71;15.19;100840.44;1707412;81;20899;-61
2022/03/10 11:59:38;;;;;;;3.72;2.52;;;;;;;17.63;15.28;100835.53;1693211;84;21623;-62
2022/03/10 12:02:05;;;;;;;5.00;2.98;;;;;;;17.66;15.19;100830.52;1692785;82;22339;-64
2022/03/10 12:04:39;;;;;;;4.70;2.33;;;;;;;17.91;15.47;100826.08;1692990;82;21395;-61
2022/03/10 12:07:17;;;;;;;4.15;1.90;;;;;;;18.10;15.32;100821.92;1715437;81;21400;-61
2022/03/10 12:10:06;;;;;;;4.22;1.77;;;;;;;18.04;14.93;100834.25;1682740;83;21603;-60
2022/03/10 12:12:37;;;;;;;2.70;2.25;;;;;;;17.79;14.49;100821.41;1698981;83;21612;-61
2022/03/10 12:15:10;;;;;;;5.10;2.10;;;;;;;17.75;14.52;100838.00;1747247;80;21434;-61
2022/03/10 12:17:55;;;;;;;2.02;1.60;;;;;;;17.75;15.11;100824.70;1723823;80;20945;-61
2022/03/10 12:20:26;;;;;;;5.80;2.00;;;;;;;17.42;14.38;100833.55;1756041;80;21521;-61
2022/03/10 12:23:08;;;;;;;1.82;1.72;;;;;;;17.31;14.63;100832.77;1742482;79;21402;-61
2022/03/10 12:25:59;;;;;;;2.27;1.90;;;;;;;17.56;14.81;100827.48;1748796;80;21496;-61
2022/03/10 12:28:34;;;;;;;4.22;2.65;;;;;;;17.50;15.21;100818.52;1758043;80;22295;-61
2022/03/10 12:31:10;;;;;;;3.45;2.20;;;;;;;17.45;15.05;100817.41;1752924;80;21396;-61
2022/03/10 12:33:51;;;;;;;2.67;2.47;;;;;;;17.44;14.98;100818.38;1763727;80;21398;-61
2022/03/10 12:36:28;;;;;;;2.77;2.17;;;;;;;17.31;15.07;100819.48;1759965;80;21502;-61
2022/03/10 12:38:56;;;;;;;3.65;2.55;;;;;;;17.25;15.25;100817.59;1757622;80;20839;-61
2022/03/10 12:41:26;;;;;;;;;;;;;;;17.22;15.45;100827.93;1763533;79;22338;-61